Time;durP1;ratioP1;P1;durP2;ratioP2;P2;SDS_P1;SDS_P2;PMS_P1;PMS_P2;Temp;Humidity;BMP_temperature;BMP_pressure;BME280_temperature;BME280_humidity;BME280_pressure;Samples;Min_cycle;Max_cycle;Signal;HPM_P1;HPM_P2
2022/12/29 00:02:35;;;;;;;3.30;1.30;;;;;;;10.45;80.14;99800.41;5092342;28;20393;-67
2022/12/29 00:05:38;;;;;;;;;;;;;;;10.33;81.75;99807.22;5092497;28;20084;-67
2022/12/29 00:08:41;;;;;;;3.38;1.17;;;;;;;10.22;83.27;99792.19;5092142;28;20391;-67
2022/12/29 00:11:45;;;;;;;;;;;;;;;10.22;83.59;99794.81;5092275;28;20063;-67
2022/12/29 00:15:49;;;;;;;2.78;1.23;;;;;;;10.28;84.06;99805.88;5091788;28;20391;-68
2022/12/29 00:18:21;;;;;;;2.60;1.20;;;;;;;10.08;85.83;99812.25;5091987;28;20055;-67
2022/12/29 00:44:57;;;;;;;2.78;1.35;;;;;;;9.72;92.91;99777.88;5095671;28;20100;-67
2022/12/29 00:48:00;;;;;;;;;;;;;;;9.72;93.52;99784.84;5095313;28;20066;-67
2022/12/29 00:51:03;;;;;;;3.37;1.30;;;;;;;9.58;95.05;99787.47;5095590;28;19918;-67
2022/12/29 00:54:06;;;;;;;;;;;;;;;9.64;94.05;99777.50;5095618;28;20401;-67
2022/12/29 00:57:10;;;;;;;3.33;1.33;;;;;;;9.67;93.92;99771.25;5095497;28;19919;-67
2022/12/29 01:00:13;;;;;;;5.40;1.48;;;;;;;9.66;93.71;99764.34;5095359;28;20078;-67
2022/12/29 01:03:17;;;;;;;3.65;1.15;;;;;;;9.69;93.32;99757.16;5095591;28;20416;-67
2022/12/29 01:06:20;;;;;;;;;;;;;;;9.62;94.43;99762.88;5095836;28;20504;-67
2022/12/29 01:12:45;;;;;;;6.18;1.48;;;;;;;9.73;94.99;99753.47;5095111;28;20119;-67
2022/12/29 01:15:50;;;;;;;3.97;1.02;;;;;;;9.66;94.94;99753.91;5094210;28;20046;-67
2022/12/29 01:18:55;;;;;;;2.47;1.00;;;;;;;9.68;94.05;99736.38;5095124;28;20051;-67
2022/12/29 01:21:58;;;;;;;;;;;;;;;9.65;93.87;99745.25;5094681;28;20044;-67
2022/12/29 01:25:01;;;;;;;4.30;1.25;;;;;;;9.66;93.44;99752.13;5094853;28;19956;-67
2022/12/29 01:28:04;;;;;;;;;;;;;;;9.76;93.00;99739.34;5095347;28;20565;-67
2022/12/29 01:31:09;;;;;;;2.83;1.02;;;;;;;9.85;92.65;99738.78;5094112;28;20292;-67
2022/12/29 01:34:14;;;;;;;4.07;0.90;;;;;;;9.82;92.38;99740.75;5093922;28;20046;-67
2022/12/29 01:37:17;;;;;;;2.05;0.75;;;;;;;9.76;93.15;99741.97;5093461;28;20153;-67
2022/12/29 01:40:21;;;;;;;2.00;1.05;;;;;;;9.89;92.01;99742.91;5093826;28;20046;-67
2022/12/29 01:43:39;;;;;;;;;;;;;;;9.84;93.00;99750.19;5095167;28;20047;-67
2022/12/29 01:46:48;;;;;;;2.30;0.80;;;;;;;9.85;93.22;99749.22;5094510;28;19922;-67
2022/12/29 01:49:55;;;;;;;2.13;0.82;;;;;;;9.90;92.37;99752.41;5093721;28;20117;-67
2022/12/29 01:53:06;;;;;;;2.58;0.82;;;;;;;9.92;91.96;99742.72;5094313;28;20105;-67
2022/12/29 01:56:15;;;;;;;3.03;0.88;;;;;;;9.94;92.12;99738.22;5093407;28;20054;-67
2022/12/29 01:59:27;;;;;;;2.50;0.80;;;;;;;9.96;92.15;99732.91;5093632;28;20100;-67
2022/12/29 02:02:31;;;;;;;2.42;0.75;;;;;;;9.95;91.16;99739.06;5093510;28;20042;-67
2022/12/29 02:06:01;;;;;;;2.55;1.00;;;;;;;9.99;91.23;99720.50;5094142;28;20578;-67
2022/12/29 02:09:05;;;;;;;2.95;0.90;;;;;;;10.02;90.75;99715.09;5093891;28;20108;-67
2022/12/29 02:12:09;;;;;;;;;;;;;;;9.98;91.59;99717.97;5093496;28;20062;-67
2022/12/29 02:15:14;;;;;;;2.83;0.82;;;;;;;10.08;90.32;99716.47;5094066;28;20049;-67
2022/12/29 02:18:32;;;;;;;3.08;0.88;;;;;;;10.15;89.82;99709.94;5093308;28;20062;-67
2022/12/29 02:21:54;;;;;;;1.63;0.60;;;;;;;10.13;91.89;99713.56;5092937;28;20042;-67
2022/12/29 02:25:37;;;;;;;2.90;0.80;;;;;;;10.16;92.10;99713.38;5092698;28;20525;-67
2022/12/29 02:28:50;;;;;;;5.15;0.90;;;;;;;9.76;96.17;99716.72;5093153;28;20055;-67
2022/12/29 02:32:15;;;;;;;2.08;0.63;;;;;;;9.88;92.57;99709.03;5093763;28;20046;-67
2022/12/29 02:35:24;;;;;;;3.88;0.70;;;;;;;9.87;95.01;99721.25;5081260;28;20089;-67
2022/12/29 02:39:20;;;;;;;4.10;0.77;;;;;;;9.95;94.92;99711.16;5092790;28;20044;-67
2022/12/29 02:42:35;;;;;;;2.63;0.60;;;;;;;9.86;96.15;99706.53;5093296;28;20516;-67
2022/12/29 02:45:54;;;;;;;2.88;0.60;;;;;;;9.92;95.62;99702.69;5092235;28;20093;-67
2022/12/29 02:49:19;;;;;;;4.80;0.90;;;;;;;9.90;96.44;99694.97;5092725;28;20136;-67
2022/12/29 02:52:31;;;;;;;4.90;0.90;;;;;;;9.70;99.32;99703.19;5092177;28;20047;-67
2022/12/29 02:55:35;;;;;;;1.80;0.50;;;;;;;9.71;98.98;99699.66;5091994;28;20093;-67
2022/12/29 02:58:38;;;;;;;1.85;0.68;;;;;;;9.77;98.65;99697.50;5092324;28;20101;-66
2022/12/29 03:02:16;;;;;;;;;;;;;;;9.80;98.48;99690.44;5093789;28;20054;-67
2022/12/29 03:05:29;;;;;;;1.80;0.60;;;;;;;9.77;97.59;99694.88;5091934;28;19934;-67
2022/12/29 03:08:36;;;;;;;2.17;0.80;;;;;;;9.80;97.43;99693.03;5092681;28;20080;-67
2022/12/29 03:12:10;;;;;;;1.73;0.75;;;;;;;9.96;98.05;99685.91;5091977;28;20462;-67
2022/12/29 03:18:52;;;;;;;2.47;0.60;;;;;;;9.90;97.09;99684.53;5092002;28;20124;-66
2022/12/29 03:25:35;;;;;;;1.88;0.52;;;;;;;9.82;98.96;99667.66;5091867;28;20100;-67
2022/12/29 03:28:51;;;;;;;2.25;0.70;;;;;;;9.75;97.28;99665.41;5092057;28;20077;-67
2022/12/29 03:31:59;;;;;;;2.17;0.70;;;;;;;9.85;97.79;99657.00;5091677;28;20080;-67
2022/12/29 03:35:06;;;;;;;2.70;0.65;;;;;;;9.83;97.59;99657.13;5091574;28;20039;-67
2022/12/29 03:38:27;;;;;;;2.05;0.60;;;;;;;9.81;97.73;99648.53;5092397;28;20403;-67
2022/12/29 03:41:31;;;;;;;3.40;0.40;;;;;;;9.82;98.43;99650.22;5091520;28;20097;-67
2022/12/29 03:44:40;;;;;;;2.30;0.73;;;;;;;9.90;98.19;99642.75;5091824;28;20050;-67
2022/12/29 03:47:45;;;;;;;4.55;0.55;;;;;;;9.90;96.21;99644.53;5091498;28;20047;-67
2022/12/29 03:50:49;;;;;;;2.78;0.77;;;;;;;9.93;96.44;99647.78;5091386;28;20113;-67
2022/12/29 03:53:53;;;;;;;2.35;0.70;;;;;;;9.85;97.49;99634.34;5092561;28;20090;-67
2022/12/29 03:56:56;;;;;;;;;;;;;;;9.86;97.09;99620.38;5091966;28;20070;-67
2022/12/29 04:00:12;;;;;;;2.25;0.68;;;;;;;9.84;97.98;99630.06;5091514;28;19922;-67
2022/12/29 04:03:26;;;;;;;2.33;0.80;;;;;;;9.88;97.78;99626.31;5091235;28;20150;-67
2022/12/29 04:06:29;;;;;;;1.40;0.60;;;;;;;9.79;97.69;99642.56;5091093;28;20065;-67
2022/12/29 04:09:39;;;;;;;1.65;0.63;;;;;;;9.85;94.72;99650.00;5090644;28;20132;-67
2022/12/29 04:12:46;;;;;;;2.38;0.95;;;;;;;9.96;93.66;99650.19;5091134;28;20038;-67
2022/12/29 04:15:50;;;;;;;4.28;1.38;;;;;;;10.06;93.76;99641.75;5091015;28;20051;-67
2022/12/29 04:18:54;;;;;;;2.53;0.90;;;;;;;10.08;93.12;99643.31;5091187;28;20047;-67
2022/12/29 04:21:59;;;;;;;2.17;0.63;;;;;;;10.12;92.26;99641.38;5091212;28;20046;-67
2022/12/29 04:25:03;;;;;;;3.08;0.60;;;;;;;10.07;92.46;99639.03;5091011;28;20082;-67
2022/12/29 04:28:07;;;;;;;2.95;0.75;;;;;;;10.01;94.19;99623.75;5091115;28;20178;-67
2022/12/29 04:31:16;;;;;;;2.97;1.08;;;;;;;9.86;95.22;99638.66;5091872;28;20047;-67
2022/12/29 04:34:22;;;;;;;2.83;0.68;;;;;;;9.99;95.71;99633.50;5090910;28;20050;-67
2022/12/29 04:37:25;;;;;;;;;;;;;;;10.01;94.92;99629.00;5091495;28;20424;-67
2022/12/29 04:40:29;;;;;;;2.63;0.60;;;;;;;10.07;93.95;99625.16;5090719;28;19965;-67
2022/12/29 04:43:32;;;;;;;3.58;0.60;;;;;;;10.11;94.68;99634.44;5091692;28;20416;-67
2022/12/29 04:46:44;;;;;;;4.63;1.27;;;;;;;10.10;95.41;99628.41;5091528;28;20093;-67
2022/12/29 04:49:56;;;;;;;4.32;0.80;;;;;;;9.91;93.32;99618.28;5088247;28;20109;-67
2022/12/29 04:53:20;;;;;;;3.40;1.30;;;;;;;9.94;95.82;99618.09;5086291;28;20059;-67
2022/12/29 04:56:23;;;;;;;;;;;;;;;9.93;95.99;99607.75;5086734;28;20086;-67
2022/12/29 04:59:27;;;;;;;3.97;1.33;;;;;;;9.99;95.43;99617.81;5087341;28;20003;-67
2022/12/29 05:02:34;;;;;;;6.45;3.47;;;;;;;9.95;95.74;99619.75;5087756;28;20108;-67
2022/12/29 05:05:38;;;;;;;4.30;2.28;;;;;;;9.98;92.10;99624.78;5088091;28;20046;-67
2022/12/29 05:08:41;;;;;;;;;;;;;;;10.00;94.28;99622.09;5084183;28;20047;-67
2022/12/29 05:11:44;;;;;;;5.87;4.37;;;;;;;10.04;93.91;99618.34;5067736;28;19998;-67
2022/12/29 05:14:47;;;;;;;3.88;1.88;;;;;;;9.99;93.32;99610.00;5069939;28;20274;-67
2022/12/29 05:17:51;;;;;;;;;;;;;;;10.14;92.86;99618.59;5072119;28;20421;-67
2022/12/29 05:20:55;;;;;;;6.10;1.80;;;;;;;10.13;91.66;99607.31;5083414;28;19985;-67
2022/12/29 05:24:00;;;;;;;4.35;1.17;;;;;;;10.10;93.62;99601.44;5090500;28;20038;-67
2022/12/29 05:27:03;;;;;;;4.00;1.15;;;;;;;9.97;94.20;99612.69;5090402;28;20066;-67
2022/12/29 05:30:19;;;;;;;4.10;1.40;;;;;;;9.93;93.45;99616.44;5091170;28;20051;-66
2022/12/29 05:33:22;;;;;;;3.80;1.05;;;;;;;10.04;90.21;99618.34;5089536;28;20078;-67
2022/12/29 05:36:27;;;;;;;3.20;1.13;;;;;;;10.20;90.57;99618.19;5068274;28;20089;-67
2022/12/29 05:39:35;;;;;;;3.50;0.98;;;;;;;10.22;87.75;99609.31;5068917;28;20136;-67
2022/12/29 05:42:41;;;;;;;4.50;1.67;;;;;;;10.32;86.97;99599.13;5084745;28;20176;-67
2022/12/29 05:46:03;;;;;;;2.40;0.82;;;;;;;10.32;88.38;99612.19;5089524;28;20085;-67
2022/12/29 05:49:25;;;;;;;2.15;1.10;;;;;;;10.37;86.86;99611.88;5089856;28;20172;-67
2022/12/29 05:52:45;;;;;;;4.20;1.33;;;;;;;10.45;85.81;99607.00;5090567;28;20416;-68
2022/12/29 05:55:49;;;;;;;3.22;0.90;;;;;;;10.41;85.22;99621.22;5090353;28;20178;-67
2022/12/29 05:58:53;;;;;;;2.78;0.82;;;;;;;10.46;85.15;99619.13;5090282;28;20047;-67
2022/12/29 06:01:56;;;;;;;2.97;0.88;;;;;;;10.44;85.56;99627.06;5090247;28;20121;-67
2022/12/29 06:04:59;;;;;;;3.92;0.77;;;;;;;10.58;84.13;99634.00;5083455;28;20038;-67
2022/12/29 06:08:03;;;;;;;;;;;;;;;10.47;85.34;99619.03;5078521;28;20558;-67
2022/12/29 06:11:07;;;;;;;3.63;1.02;;;;;;;10.43;86.95;99611.47;5074268;28;19927;-69
2022/12/29 06:14:10;;;;;;;3.58;1.10;;;;;;;10.44;86.22;99613.19;5068313;28;20123;-67
2022/12/29 06:17:14;;;;;;;2.75;0.77;;;;;;;10.41;86.42;99611.59;5072814;28;20553;-67
2022/12/29 06:20:17;;;;;;;4.45;0.90;;;;;;;10.09;91.25;99618.91;5088886;28;20112;-67
2022/12/29 06:23:21;;;;;;;4.88;0.82;;;;;;;10.32;86.46;99614.81;5090055;28;20124;-67
2022/12/29 06:26:24;;;;;;;;;;;;;;;10.45;85.49;99618.28;5090062;28;20074;-67
2022/12/29 06:29:28;;;;;;;5.78;0.98;;;;;;;10.54;85.01;99611.63;5088929;28;20424;-67
2022/12/29 06:32:32;;;;;;;4.20;1.20;;;;;;;10.64;86.84;99614.44;5088659;28;20096;-67
2022/12/29 06:35:45;;;;;;;4.93;1.02;;;;;;;10.52;89.28;99610.03;5090034;28;20043;-67
2022/12/29 06:38:52;;;;;;;4.40;1.73;;;;;;;10.25;90.94;99611.72;5056992;28;20077;-67
2022/12/29 06:41:55;;;;;;;4.53;0.90;;;;;;;10.22;91.47;99611.09;5068803;28;20067;-66
2022/12/29 06:45:11;;;;;;;5.28;1.60;;;;;;;10.16;91.96;99616.72;5068763;28;20105;-66
2022/12/29 06:48:15;;;;;;;4.32;1.20;;;;;;;10.19;91.25;99611.31;5068976;28;20052;-69
2022/12/29 06:51:19;;;;;;;3.03;1.50;;;;;;;10.21;90.05;99609.41;5070700;28;20409;-68
2022/12/29 06:54:25;;;;;;;5.18;1.20;;;;;;;10.27;90.46;99624.72;5069606;28;20139;-66
2022/12/29 06:57:28;;;;;;;5.70;1.17;;;;;;;10.22;90.14;99627.59;5078755;28;20446;-67
2022/12/29 07:00:32;;;;;;;3.70;2.03;;;;;;;10.18;90.87;99620.91;5084051;28;20170;-66
2022/12/29 07:03:35;;;;;;;4.00;1.60;;;;;;;10.19;91.53;99630.41;5072333;28;20039;-67
2022/12/29 07:06:40;;;;;;;;;;;;;;;10.27;91.47;99614.25;5071320;28;20085;-67
2022/12/29 07:09:43;;;;;;;5.88;1.42;;;;;;;10.27;91.30;99614.25;5070178;28;20653;-67
2022/12/29 07:12:46;;;;;;;;;;;;;;;10.14;91.35;99610.75;5069720;28;20097;-67
2022/12/29 07:15:49;;;;;;;2.08;0.80;;;;;;;10.18;90.12;99596.56;5080699;28;19919;-67
2022/12/29 07:18:52;;;;;;;;;;;;;;;10.19;90.17;99611.31;5071751;28;20059;-67
2022/12/29 07:21:56;;;;;;;3.27;0.70;;;;;;;10.19;90.21;99611.31;5069929;28;19963;-68
2022/12/29 07:25:00;;;;;;;2.50;0.60;;;;;;;10.20;90.59;99608.56;5072603;28;20050;-68
2022/12/29 07:28:03;;;;;;;;;;;;;;;10.28;89.25;99609.91;5073942;28;20055;-68
2022/12/29 07:31:15;;;;;;;2.08;0.60;;;;;;;10.29;90.56;99622.84;5068787;28;19942;-67
2022/12/29 07:34:18;;;;;;;2.03;0.50;;;;;;;10.17;90.07;99613.16;5069238;28;20177;-68
2022/12/29 07:37:21;;;;;;;2.40;0.75;;;;;;;10.36;88.05;99624.13;5069466;28;20035;-67
2022/12/29 07:40:24;;;;;;;;;;;;;;;10.40;88.14;99633.44;5074276;28;20467;-67
2022/12/29 07:43:28;;;;;;;1.85;0.82;;;;;;;10.39;87.96;99650.03;5075245;28;19926;-67
2022/12/29 07:46:51;;;;;;;1.90;0.70;;;;;;;10.38;87.83;99656.22;5068261;28;20059;-67
2022/12/29 07:49:54;;;;;;;;;;;;;;;10.43;88.94;99662.00;5076127;28;20054;-68
2022/12/29 07:53:02;;;;;;;5.93;1.50;;;;;;;10.33;90.30;99665.28;5069127;28;19919;-68
2022/12/29 07:59:13;;;;;;;5.50;1.95;;;;;;;10.10;94.14;99724.22;5046088;28;20563;-81
2022/12/29 08:02:16;;;;;;;8.60;1.30;;;;;;;9.99;95.62;99722.28;5069227;28;20059;-79
2022/12/29 08:05:20;;;;;;;2.88;0.80;;;;;;;9.98;93.24;99716.19;5068613;28;20181;-80
2022/12/29 08:08:24;;;;;;;4.03;0.70;;;;;;;10.06;92.20;99712.28;5076163;28;20046;-81
2022/12/29 08:11:27;;;;;;;;;;;;;;;10.09;91.89;99710.31;5093170;28;20069;-79
2022/12/29 08:14:36;;;;;;;2.15;0.57;;;;;;;10.12;90.00;99724.97;5091390;28;19957;-80
2022/12/29 08:17:45;;;;;;;2.50;0.88;;;;;;;10.16;91.27;99726.44;5091758;28;20616;-80
2022/12/29 08:20:49;;;;;;;1.35;0.40;;;;;;;10.05;90.00;99726.25;5091296;28;20050;-80
2022/12/29 08:23:52;;;;;;;1.00;0.32;;;;;;;10.19;89.57;99716.63;5091235;28;20043;-80
2022/12/29 08:26:56;;;;;;;4.32;0.52;;;;;;;10.06;90.35;99710.50;5089321;28;20042;-80
2022/12/29 08:30:00;;;;;;;;;;;;;;;10.10;90.56;99711.16;5090881;28;20541;-79
2022/12/29 08:33:04;;;;;;;2.22;0.65;;;;;;;10.13;91.88;99727.47;5091105;28;19919;-79
2022/12/29 08:36:08;;;;;;;1.73;0.45;;;;;;;10.09;90.33;99738.22;5067408;28;20101;-80
2022/12/29 08:39:12;;;;;;;1.10;0.40;;;;;;;10.24;89.49;99729.38;5090281;28;20522;-81
2022/12/29 08:42:15;;;;;;;;;;;;;;;10.29;91.11;99750.03;5092413;28;20525;-80
2022/12/29 08:45:18;;;;;;;3.75;1.15;;;;;;;10.09;91.80;99743.44;5091793;28;19923;-81
2022/12/29 08:48:22;;;;;;;1.42;0.50;;;;;;;10.16;90.80;99740.34;5094076;28;20051;-81
2022/12/29 08:51:28;;;;;;;2.65;0.60;;;;;;;10.27;89.90;99738.84;5084268;28;20078;-82
2022/12/29 08:54:32;;;;;;;1.65;0.60;;;;;;;10.08;90.60;99744.34;5074288;28;20644;-80
2022/12/29 08:57:35;;;;;;;2.28;0.70;;;;;;;9.98;91.37;99755.38;5061484;28;20074;-83
2022/12/29 09:00:43;;;;;;;4.95;1.27;;;;;;;10.25;91.34;99754.59;5064007;28;20057;-80
2022/12/29 09:03:47;;;;;;;2.22;0.93;;;;;;;10.42;91.52;99758.78;5043307;28;20084;-80
2022/12/29 09:06:51;;;;;;;3.53;0.90;;;;;;;10.46;91.20;99762.88;5054380;28;20474;-80
2022/12/29 09:09:57;;;;;;;1.98;0.57;;;;;;;10.29;93.03;99760.50;5071669;28;20093;-79
2022/12/29 09:20:35;;;;;;;4.00;0.80;;;;;;;10.35;93.95;99768.78;5075447;28;20532;-81
2022/12/29 09:23:42;;;;;;;2.78;0.80;;;;;;;10.02;93.87;99772.56;5076368;28;20093;-80
2022/12/29 09:26:49;;;;;;;5.32;1.20;;;;;;;10.13;94.04;99787.53;5075602;28;20132;-82
2022/12/29 09:29:55;;;;;;;4.07;0.82;;;;;;;10.11;95.13;99786.78;5064078;28;20518;-85
2022/12/29 09:32:59;;;;;;;3.30;1.35;;;;;;;10.23;94.23;99783.41;5076089;28;20056;-85
2022/12/29 09:36:05;;;;;;;8.93;5.22;;;;;;;10.31;92.80;99771.69;5076155;28;20186;-84
2022/12/29 09:39:12;;;;;;;7.60;3.33;;;;;;;10.27;93.42;99781.47;5076412;28;20060;-85
2022/12/29 09:43:20;;;;;;;5.35;2.30;;;;;;;10.31;93.19;99793.44;5068227;28;20103;-91
2022/12/29 09:46:25;;;;;;;5.07;1.40;;;;;;;10.18;95.38;99795.94;5065173;28;20144;-84
2022/12/29 10:01:07;;;;;;;2.35;0.77;;;;;;;10.04;94.54;99779.44;5084469;27;1910350;-70
2022/12/29 10:04:11;;;;;;;2.20;1.10;;;;;;;10.09;98.75;99783.47;5130096;28;20073;-69
2022/12/29 10:14:15;;;;;;;5.22;1.00;;;;;;;9.92;94.16;99804.53;5082711;22;20053;-76
2022/12/29 10:18:02;;;;;;;2.10;0.85;;;;;;;10.12;92.64;99798.09;5097621;28;20051;-78
2022/12/29 10:25:38;;;;;;;3.88;1.17;;;;;;;9.93;94.43;99809.69;5092095;28;20044;-80
2022/12/29 10:28:52;;;;;;;4.43;1.95;;;;;;;9.78;96.06;99826.25;5094145;28;20042;-80
2022/12/29 10:32:01;;;;;;;1.50;0.60;;;;;;;9.64;96.62;99831.47;5096759;28;20493;-78
2022/12/29 10:35:18;;;;;;;2.95;0.90;;;;;;;9.70;97.52;99818.03;5095284;28;20098;-82
2022/12/29 10:38:59;;;;;;;5.70;1.40;;;;;;;9.65;97.85;99813.09;5086299;28;20065;-78
2022/12/29 10:42:27;;;;;;;5.35;1.10;;;;;;;9.61;96.77;99813.41;5088938;28;20043;-82
2022/12/29 10:45:38;;;;;;;2.53;0.95;;;;;;;9.87;97.08;99804.00;5084724;28;20101;-87
2022/12/29 10:48:54;;;;;;;4.03;1.30;;;;;;;9.97;96.74;99811.16;5072455;28;20046;-85
2022/12/29 10:52:56;;;;;;;3.72;0.88;;;;;;;9.82;94.51;99806.03;5081737;28;20059;-84
2022/12/29 10:57:27;;;;;;;2.60;0.82;;;;;;;9.84;93.23;99798.94;5083226;28;20086;-84
2022/12/29 11:01:20;;;;;;;3.15;0.93;;;;;;;9.90;91.19;99809.03;4972203;28;20144;-86
2022/12/29 11:05:40;;;;;;;6.35;1.50;;;;;;;10.00;92.74;99808.34;5005785;28;20065;-85
2022/12/29 11:09:10;;;;;;;6.55;2.10;;;;;;;10.07;92.37;99815.81;5069578;28;20032;-85
2022/12/29 11:13:13;;;;;;;7.40;1.45;;;;;;;10.16;87.78;99816.09;5064266;28;20565;-85
2022/12/29 11:17:03;;;;;;;5.10;1.08;;;;;;;10.21;86.17;99821.03;4971015;28;20056;-84
2022/12/29 11:20:58;;;;;;;;;;;;;;;;;;;;;
2022/12/29 11:24:43;;;;;;;7.93;1.77;;;;;;;10.22;87.16;99827.94;5049816;28;20091;-84
2022/12/29 11:28:31;;;;;;;5.15;2.17;;;;;;;10.18;85.29;99826.47;5030917;28;20151;-84
2022/12/29 11:33:16;;;;;;;;;;;;;;;;;;;;;
2022/12/29 11:42:21;;;;;;;6.40;1.42;;;;;;;10.50;77.24;99839.31;5040164;28;20423;-86
2022/12/29 11:55:40;;;;;;;;;;;;;;;;;;;;;
2022/12/29 12:04:30;;;;;;;8.40;1.30;;;;;;;10.65;69.56;99846.19;4985083;28;20073;-87
2022/12/29 12:08:55;;;;;;;5.45;1.05;;;;;;;10.60;69.59;99877.03;5001118;28;20141;-87
2022/12/29 12:11:57;;;;;;;5.68;1.20;;;;;;;10.67;69.65;99862.63;5025918;28;20049;-69
2022/12/29 12:15:02;;;;;;;8.70;1.70;;;;;;;10.63;69.03;99863.75;5014146;28;20107;-69
2022/12/29 12:18:50;;;;;;;4.88;1.05;;;;;;;10.67;69.30;99857.41;5019775;28;20037;-69
2022/12/29 12:22:07;;;;;;;7.00;1.27;;;;;;;10.61;69.40;99848.16;5027210;28;20044;-69
2022/12/29 12:25:37;;;;;;;9.70;1.60;;;;;;;10.69;71.16;99850.31;5033895;28;20052;-69
2022/12/29 12:29:03;;;;;;;6.47;2.00;;;;;;;10.65;69.77;99851.41;5028160;28;20044;-69
2022/12/29 12:32:15;;;;;;;6.10;2.25;;;;;;;10.69;69.02;99847.69;5027907;28;20643;-68
2022/12/29 12:35:31;;;;;;;7.30;2.17;;;;;;;10.78;69.87;99852.31;5029697;28;20418;-69
2022/12/29 12:38:48;;;;;;;8.95;2.85;;;;;;;10.73;69.87;99841.31;5028197;28;20509;-70
2022/12/29 12:42:15;;;;;;;8.40;2.00;;;;;;;10.87;68.89;99841.25;5028734;28;20115;-69
2022/12/29 12:45:42;;;;;;;6.47;2.13;;;;;;;10.87;69.02;99849.09;5028981;28;20047;-69
2022/12/29 12:49:04;;;;;;;10.98;5.38;;;;;;;10.85;67.61;99840.53;5009670;28;20080;-67
2022/12/29 12:52:47;;;;;;;6.97;2.20;;;;;;;10.98;68.22;99831.91;5009106;28;20135;-68
2022/12/29 12:56:03;;;;;;;8.18;2.58;;;;;;;10.94;67.27;99826.88;5011855;28;20029;-69
2022/12/29 12:59:43;;;;;;;7.15;2.03;;;;;;;11.04;67.21;99819.25;5027592;28;20079;-70
2022/12/29 13:02:58;;;;;;;6.72;1.83;;;;;;;11.02;66.58;99821.13;5022610;28;20044;-69
2022/12/29 13:06:04;;;;;;;8.50;2.40;;;;;;;11.11;66.27;99838.00;5047226;28;20704;-69
2022/12/29 13:09:20;;;;;;;8.18;2.17;;;;;;;11.00;66.05;99835.25;5023139;28;20075;-69
2022/12/29 13:12:35;;;;;;;9.95;1.90;;;;;;;11.04;65.22;99839.31;5036227;28;20047;-69
2022/12/29 13:15:43;;;;;;;7.45;1.70;;;;;;;11.09;64.91;99845.09;5048952;28;20056;-72
2022/12/29 13:19:05;;;;;;;10.57;2.00;;;;;;;11.11;64.67;99831.00;5048846;28;20048;-69
2022/12/29 13:22:26;;;;;;;4.63;1.45;;;;;;;11.09;64.92;99832.03;5028808;28;20052;-69
2022/12/29 13:25:44;;;;;;;8.73;3.63;;;;;;;11.21;65.06;99825.16;5028948;28;20047;-69
2022/12/29 13:29:06;;;;;;;8.45;2.15;;;;;;;11.16;65.13;99847.22;5008485;28;20099;-69
2022/12/29 13:32:37;;;;;;;12.57;4.15;;;;;;;11.09;64.91;99842.50;5008625;28;20053;-69
2022/12/29 13:35:59;;;;;;;16.38;9.82;;;;;;;11.21;64.58;99846.94;5008817;28;20049;-68
2022/12/29 13:39:14;;;;;;;19.48;12.38;;;;;;;11.28;64.29;99848.19;5008607;28;20072;-69
2022/12/29 13:42:19;;;;;;;6.85;2.70;;;;;;;11.13;64.58;99855.25;5026652;28;20067;-68
2022/12/29 13:45:26;;;;;;;9.32;2.22;;;;;;;11.12;64.56;99847.53;5028783;28;20087;-69
2022/12/29 13:49:01;;;;;;;6.68;1.65;;;;;;;11.08;63.09;99846.91;5028162;28;20068;-68
2022/12/29 13:52:17;;;;;;;9.65;2.58;;;;;;;10.97;64.76;99853.75;5008512;28;20103;-68
2022/12/29 13:55:23;;;;;;;6.80;2.45;;;;;;;10.95;63.27;99866.94;5014983;28;20278;-68
2022/12/29 13:58:36;;;;;;;6.28;2.25;;;;;;;11.04;62.47;99855.03;5024283;28;20091;-68
2022/12/29 14:01:47;;;;;;;8.40;2.50;;;;;;;11.14;63.27;99866.59;5027357;28;20092;-68
2022/12/29 14:05:03;;;;;;;10.20;3.90;;;;;;;11.01;62.29;99860.44;5026479;28;20697;-68
2022/12/29 14:08:17;;;;;;;11.40;5.97;;;;;;;10.92;62.32;99873.19;5021816;28;20148;-69
2022/12/29 14:11:31;;;;;;;10.32;3.60;;;;;;;10.91;63.10;99855.84;5013352;28;20513;-69
2022/12/29 14:14:37;;;;;;;11.50;4.72;;;;;;;10.83;62.91;99852.03;5026160;28;20183;-67
2022/12/29 14:17:42;;;;;;;6.53;2.60;;;;;;;10.66;63.35;99860.97;5026590;28;20496;-68
2022/12/29 14:20:53;;;;;;;8.25;3.03;;;;;;;10.71;63.97;99869.34;5026330;28;20080;-68
2022/12/29 14:24:32;;;;;;;8.07;2.20;;;;;;;10.80;63.88;99875.75;5031668;28;20047;-68
2022/12/29 14:27:43;;;;;;;6.15;1.60;;;;;;;10.85;63.81;99873.72;5007597;28;20045;-71
2022/12/29 14:30:50;;;;;;;6.75;2.60;;;;;;;10.82;63.57;99877.34;5010432;28;20103;-69
2022/12/29 14:34:06;;;;;;;7.20;1.42;;;;;;;10.73;63.33;99877.94;5024550;28;20103;-69
2022/12/29 14:37:33;;;;;;;7.93;2.90;;;;;;;10.79;63.89;99877.53;5029221;28;20517;-68
2022/12/29 14:40:37;;;;;;;7.47;1.80;;;;;;;10.92;64.40;99886.28;5010536;28;20463;-68
2022/12/29 14:43:53;;;;;;;9.40;2.08;;;;;;;10.80;64.50;99879.22;5011467;28;20592;-68
2022/12/29 14:47:06;;;;;;;41.88;18.95;;;;;;;10.80;63.63;99883.59;5022759;28;20095;-68
2022/12/29 14:50:14;;;;;;;;;;;;;;;10.93;63.46;99882.72;5029804;28;20045;-68
2022/12/29 14:53:49;;;;;;;40.58;23.50;;;;;;;10.99;63.80;99883.28;5040782;28;19965;-67
2022/12/29 14:56:59;;;;;;;12.18;6.47;;;;;;;10.84;63.91;99895.53;5024648;28;20449;-68
2022/12/29 15:00:12;;;;;;;8.48;2.47;;;;;;;10.82;63.56;99885.19;5029436;28;20080;-68
2022/12/29 15:03:19;;;;;;;;;;;;;;;10.64;64.68;99895.03;5029994;28;20099;-68
2022/12/29 15:06:27;;;;;;;6.93;2.05;;;;;;;10.63;63.61;99900.38;5028871;28;19921;-68
2022/12/29 15:09:36;;;;;;;6.28;1.77;;;;;;;10.60;62.46;99897.94;5019750;28;20087;-68
2022/12/29 15:12:55;;;;;;;9.15;2.20;;;;;;;10.56;62.99;99896.44;5027113;28;20049;-69
2022/12/29 15:16:02;;;;;;;12.38;3.58;;;;;;;10.58;63.89;99895.41;5028226;28;20112;-69
2022/12/29 15:19:21;;;;;;;13.68;6.30;;;;;;;10.48;64.34;99895.13;5027118;28;20075;-69
2022/12/29 15:22:25;;;;;;;7.32;3.40;;;;;;;10.30;63.79;99898.88;5028518;28;20048;-69
2022/12/29 15:25:31;;;;;;;8.30;2.90;;;;;;;10.31;62.43;99905.81;5027958;28;20035;-68
2022/12/29 15:28:43;;;;;;;7.63;2.15;;;;;;;10.37;61.88;99902.81;5027637;28;20128;-69
2022/12/29 15:31:48;;;;;;;7.18;2.08;;;;;;;10.41;61.05;99903.47;5027891;28;20048;-69
2022/12/29 15:34:56;;;;;;;8.20;1.95;;;;;;;10.34;60.94;99916.06;5025547;28;20092;-69
2022/12/29 15:38:12;;;;;;;12.70;3.13;;;;;;;10.27;61.45;99890.38;5028854;28;20076;-68
2022/12/29 15:41:59;;;;;;;6.05;1.75;;;;;;;10.27;62.55;99900.84;5030458;28;20133;-68
2022/12/29 15:45:07;;;;;;;6.95;2.22;;;;;;;10.20;61.71;99911.63;5031546;28;20504;-68
2022/12/29 15:48:22;;;;;;;6.53;1.80;;;;;;;10.21;61.83;99904.63;5030068;28;20144;-67
2022/12/29 15:51:34;;;;;;;15.15;5.72;;;;;;;10.11;62.95;99921.78;5029482;28;20045;-67
2022/12/29 15:54:42;;;;;;;8.23;2.53;;;;;;;10.09;63.06;99929.75;5031230;28;20091;-68
2022/12/29 15:57:45;;;;;;;14.13;5.93;;;;;;;10.01;63.43;99932.78;5029500;28;20095;-67
2022/12/29 16:01:00;;;;;;;5.85;2.63;;;;;;;10.02;64.03;99917.97;5029852;28;20098;-70
2022/12/29 16:04:07;;;;;;;51.17;30.75;;;;;;;9.94;66.24;99923.63;5029829;28;20048;-68
2022/12/29 16:07:30;;;;;;;8.80;3.65;;;;;;;9.87;64.50;99927.56;5032369;28;20035;-68
2022/12/29 16:10:41;;;;;;;8.45;2.05;;;;;;;9.72;64.76;99929.28;5019818;28;20053;-68
2022/12/29 16:13:44;;;;;;;13.50;2.30;;;;;;;9.70;64.45;99925.06;5030552;28;20505;-68
2022/12/29 16:16:49;;;;;;;8.07;2.53;;;;;;;9.71;65.00;99924.16;5018951;28;20048;-68
2022/12/29 16:19:57;;;;;;;4.97;1.10;;;;;;;9.63;64.70;99929.81;4683841;28;10000471;-69
2022/12/29 16:23:01;;;;;;;10.05;1.45;;;;;;;9.76;65.30;99929.94;5025654;28;20052;-69
2022/12/29 16:26:16;;;;;;;9.95;2.33;;;;;;;9.80;65.22;99936.69;5030242;28;20041;-73
2022/12/29 16:29:21;;;;;;;8.80;1.98;;;;;;;9.76;63.39;99958.66;5031650;28;20040;-67
2022/12/29 16:32:24;;;;;;;6.70;1.58;;;;;;;9.78;64.02;99967.25;5019335;28;20052;-69
2022/12/29 16:35:29;;;;;;;;;;;;;;;9.58;64.62;99967.56;5031944;28;20136;-69
2022/12/29 16:38:34;;;;;;;6.32;1.83;;;;;;;9.53;65.42;99967.81;5029563;28;20398;-70
2022/12/29 16:41:37;;;;;;;10.38;4.80;;;;;;;9.48;64.44;99962.03;5025988;28;20606;-71
2022/12/29 16:44:41;;;;;;;14.20;7.15;;;;;;;9.51;63.53;99974.91;5027607;28;20344;-71
2022/12/29 16:48:06;;;;;;;13.73;5.38;;;;;;;9.52;63.48;99960.91;5027765;28;20545;-71
2022/12/29 16:51:28;;;;;;;23.85;10.60;;;;;;;9.47;63.34;99974.22;5028675;28;20050;-71
2022/12/29 16:54:35;;;;;;;14.02;8.48;;;;;;;9.46;63.86;99979.53;5027198;28;20063;-72